createdAt,value
2023-02-14T00:00:22.238Z,99872.73
2023-02-14T00:02:50.376Z,99870.37
2023-02-14T00:05:18.509Z,99873.95
2023-02-14T00:07:47.071Z,99864.48
2023-02-14T00:10:15.588Z,99862.48
2023-02-14T00:12:43.631Z,99858.05
2023-02-14T00:15:32.286Z,99858.91
2023-02-14T00:18:03.646Z,99853.38
2023-02-14T00:20:32.530Z,99854.92
2023-02-14T00:23:01.113Z,99852.42
2023-02-14T00:25:29.539Z,99855.52
2023-02-14T00:27:57.956Z,99854.52
2023-02-14T00:30:26.383Z,99854.41
2023-02-14T00:32:54.488Z,99844.09
2023-02-14T00:35:22.534Z,99837.58
2023-02-14T00:37:50.617Z,99835.77
2023-02-14T00:40:22.514Z,99836.98
2023-02-14T00:42:50.559Z,99842.77
2023-02-14T00:45:20.560Z,99832.38
2023-02-14T00:47:48.761Z,99824.30
2023-02-14T00:50:17.176Z,99815.47
2023-02-14T00:52:46.139Z,99819.55
2023-02-14T00:55:14.178Z,99834.83
2023-02-14T00:57:42.236Z,99826.28
2023-02-14T01:00:12.072Z,99819.57
2023-02-14T01:02:40.242Z,99811.43
2023-02-14T01:05:09.406Z,99820.70
2023-02-14T01:07:38.098Z,99820.04
2023-02-14T01:10:07.151Z,99826.50
2023-02-14T01:12:36.498Z,99824.02
2023-02-14T01:15:05.109Z,99822.23
2023-02-14T01:17:33.932Z,99811.55
2023-02-14T01:20:02.269Z,99804.33
2023-02-14T01:22:38.436Z,99799.55
2023-02-14T01:25:07.252Z,99802.91
2023-02-14T01:27:35.381Z,99799.44
2023-02-14T01:30:04.014Z,99797.84
2023-02-14T01:32:32.700Z,99797.70
2023-02-14T01:35:18.009Z,99791.42
2023-02-14T01:37:49.161Z,99787.95
2023-02-14T01:40:17.623Z,99777.90
2023-02-14T01:42:47.921Z,99774.02
2023-02-14T01:45:21.119Z,99760.34
2023-02-14T01:47:52.290Z,99757.51
2023-02-14T01:50:26.363Z,99750.73
2023-02-14T01:53:00.000Z,99741.22
2023-02-14T01:55:30.825Z,99741.48
2023-02-14T01:58:20.618Z,99738.59
2023-02-14T02:00:59.176Z,99739.34
2023-02-14T02:03:35.896Z,99725.87
2023-02-14T02:06:32.165Z,99716.98
2023-02-14T02:09:21.979Z,99716.21
2023-02-14T02:11:50.268Z,99716.19
2023-02-14T02:14:20.113Z,99722.11
2023-02-14T02:16:54.406Z,99729.08
2023-02-14T02:19:41.425Z,99734.34
2023-02-14T02:22:33.875Z,99732.35
2023-02-14T02:25:14.085Z,99731.12
2023-02-14T02:27:55.736Z,99725.19
2023-02-14T02:31:13.564Z,99733.84
2023-02-14T02:34:39.259Z,99711.41
2023-02-14T02:37:23.531Z,99714.20
2023-02-14T02:40:11.061Z,99707.87
2023-02-14T02:43:01.859Z,99709.76
2023-02-14T02:46:08.864Z,99706.92
2023-02-14T02:48:48.155Z,99707.81
2023-02-14T02:51:46.708Z,99717.55
2023-02-14T02:54:28.903Z,99729.90
2023-02-14T02:56:58.823Z,99731.20
2023-02-14T02:59:31.511Z,99730.22
2023-02-14T03:02:09.997Z,99736.30
2023-02-14T03:04:56.143Z,99739.60
2023-02-14T03:07:39.432Z,99736.23
2023-02-14T03:10:13.219Z,99743.97
2023-02-14T03:13:16.294Z,99750.65
2023-02-14T03:16:11.579Z,99758.46
2023-02-14T03:19:02.512Z,99760.45
2023-02-14T03:21:52.404Z,99768.73
2023-02-14T03:24:49.340Z,99772.71
2023-02-14T03:27:33.187Z,99762.98
2023-02-14T03:30:20.184Z,99765.73
2023-02-14T03:33:03.216Z,99776.70
2023-02-14T03:36:16.717Z,99779.92
2023-02-14T03:39:02.631Z,99787.02
2023-02-14T03:41:34.287Z,99779.89
2023-02-14T03:44:04.600Z,99780.52
2023-02-14T03:46:36.340Z,99784.98
2023-02-14T03:49:07.108Z,99791.16
2023-02-14T03:51:35.423Z,99791.90
2023-02-14T03:54:06.857Z,99794.79
2023-02-14T03:56:38.780Z,99795.99
2023-02-14T03:59:10.267Z,99803.04
2023-02-14T04:01:57.168Z,99794.31
2023-02-14T04:04:27.323Z,99795.86
2023-02-14T04:06:55.306Z,99797.33
2023-02-14T04:09:23.492Z,99785.63
2023-02-14T04:11:52.791Z,99784.07
2023-02-14T04:14:21.437Z,99783.52
2023-02-14T04:17:08.017Z,99783.52
2023-02-14T04:19:36.477Z,99775.81
2023-02-14T04:22:04.896Z,99776.27
2023-02-14T04:24:33.542Z,99779.89
2023-02-14T04:27:10.933Z,99779.21
2023-02-14T04:29:48.320Z,99775.18
2023-02-14T04:32:18.979Z,99787.75
2023-02-14T04:34:47.725Z,99800.27
2023-02-14T04:37:17.482Z,99804.58
2023-02-14T04:39:48.366Z,99810.94
2023-02-14T04:42:16.378Z,99811.86
2023-02-14T04:44:44.746Z,99812.63
2023-02-14T04:47:13.718Z,99814.43
2023-02-14T04:49:41.770Z,99822.71
2023-02-14T04:52:10.288Z,99821.79
2023-02-14T04:54:38.800Z,99827.58
2023-02-14T04:57:07.070Z,99830.95
2023-02-14T04:59:35.964Z,99831.48
2023-02-14T05:02:04.285Z,99838.27
2023-02-14T05:04:35.481Z,99848.40
2023-02-14T05:07:04.086Z,99845.88
2023-02-14T05:09:33.518Z,99857.09
2023-02-14T05:12:01.501Z,99855.58
2023-02-14T05:14:29.788Z,99853.70
2023-02-14T05:16:58.049Z,99848.92
2023-02-14T05:19:26.895Z,99842.59
2023-02-14T05:21:56.203Z,99846.16
2023-02-14T05:24:24.565Z,99844.13
2023-02-14T05:26:53.229Z,99846.02
2023-02-14T05:29:21.463Z,99846.98
2023-02-14T05:31:50.006Z,99852.23
2023-02-14T05:34:18.833Z,99847.65
2023-02-14T05:36:46.947Z,99845.71
2023-02-14T05:39:16.088Z,99844.39
2023-02-14T05:41:44.223Z,99849.69
2023-02-14T05:44:15.890Z,99844.97
2023-02-14T05:46:43.856Z,99835.17
2023-02-14T05:49:12.289Z,99844.34
2023-02-14T05:51:40.342Z,99842.08
2023-02-14T05:54:10.796Z,99839.55
2023-02-14T05:56:39.423Z,99845.33
2023-02-14T05:59:08.348Z,99843.71
2023-02-14T06:01:36.547Z,99852.87
2023-02-14T06:04:07.743Z,99852.64
2023-02-14T06:06:36.803Z,99852.02
2023-02-14T06:09:05.414Z,99856.15
2023-02-14T06:11:33.429Z,99862.41
2023-02-14T06:14:01.589Z,99857.02
2023-02-14T06:16:33.375Z,99860.25
2023-02-14T06:19:02.581Z,99865.71
2023-02-14T06:21:30.902Z,99865.95
2023-02-14T06:23:59.274Z,99865.93
2023-02-14T06:26:28.025Z,99863.15
2023-02-14T06:28:57.106Z,99860.90
2023-02-14T06:31:26.604Z,99865.70
2023-02-14T06:33:55.025Z,99868.95
2023-02-14T06:36:23.885Z,99871.80
2023-02-14T06:38:51.966Z,99877.67
2023-02-14T06:41:20.254Z,99880.38
2023-02-14T06:43:48.868Z,99884.11
2023-02-14T06:46:18.123Z,99885.48
2023-02-14T06:48:46.542Z,99880.69
2023-02-14T06:51:14.728Z,99874.06
2023-02-14T06:53:42.980Z,99872.77
2023-02-14T06:56:11.059Z,99865.94
2023-02-14T06:58:39.334Z,99862.16
2023-02-14T07:01:07.543Z,99862.52
2023-02-14T07:03:35.973Z,99859.65
2023-02-14T07:06:04.779Z,99867.05
2023-02-14T07:08:34.371Z,99861.52
2023-02-14T07:11:03.216Z,99864.10
2023-02-14T07:13:34.783Z,99857.30
2023-02-14T07:16:03.916Z,99859.73
2023-02-14T07:18:32.420Z,99860.75
2023-02-14T07:21:01.758Z,99857.30
2023-02-14T07:23:30.185Z,99856.39
2023-02-14T07:25:58.366Z,99856.40
2023-02-14T07:28:26.849Z,99859.65
2023-02-14T07:30:56.398Z,99858.87
2023-02-14T07:33:24.905Z,99857.86
2023-02-14T07:35:53.426Z,99857.85
2023-02-14T07:38:22.295Z,99858.95
2023-02-14T07:40:53.704Z,99854.54
2023-02-14T07:43:21.700Z,99842.65
2023-02-14T07:45:50.657Z,99836.64
2023-02-14T07:48:20.641Z,99839.95
2023-02-14T07:50:48.865Z,99844.30
2023-02-14T07:53:20.563Z,99846.76
2023-02-14T07:55:50.915Z,99850.35
2023-02-14T07:58:19.093Z,99850.51
2023-02-14T08:00:47.285Z,99842.86
2023-02-14T08:03:18.123Z,99847.93
2023-02-14T08:05:57.203Z,99839.94
2023-02-14T08:08:34.529Z,99840.73
2023-02-14T08:11:03.235Z,99840.56
2023-02-14T08:13:31.592Z,99845.34
2023-02-14T08:16:05.949Z,99841.29
2023-02-14T08:18:39.651Z,99840.62
2023-02-14T08:21:09.190Z,99844.68
2023-02-14T08:23:38.043Z,99850.88
2023-02-14T08:26:07.531Z,99850.58
2023-02-14T08:28:36.703Z,99845.23
2023-02-14T08:31:04.905Z,99845.66
2023-02-14T08:33:33.655Z,99840.97
2023-02-14T08:36:02.742Z,99855.73
2023-02-14T08:38:30.935Z,99857.17
2023-02-14T08:41:08.191Z,99847.10
2023-02-14T08:43:37.592Z,99849.84
2023-02-14T08:46:05.659Z,99847.27
2023-02-14T08:48:38.078Z,99845.60
2023-02-14T08:51:08.083Z,99850.41
2023-02-14T08:53:37.089Z,99855.17
2023-02-14T08:56:08.870Z,99861.75
2023-02-14T08:58:38.534Z,99858.27
2023-02-14T09:01:15.114Z,99861.19
2023-02-14T09:03:44.564Z,99858.76
2023-02-14T09:06:16.144Z,99864.70
2023-02-14T09:08:44.536Z,99858.38
2023-02-14T09:11:18.480Z,99865.09
2023-02-14T09:13:46.897Z,99865.48
2023-02-14T09:16:21.902Z,99857.67
2023-02-14T09:18:53.724Z,99856.63
2023-02-14T09:21:24.624Z,99857.25
2023-02-14T09:24:12.814Z,99865.65
2023-02-14T09:26:42.332Z,99872.59
2023-02-14T09:29:13.458Z,99877.14
2023-02-14T09:31:41.773Z,99866.71
2023-02-14T09:34:10.206Z,99867.98
2023-02-14T09:36:38.285Z,99859.85
2023-02-14T09:39:07.022Z,99861.44
2023-02-14T09:41:51.049Z,99856.50
2023-02-14T09:44:54.346Z,99853.95
2023-02-14T09:47:30.016Z,99847.77
2023-02-14T09:49:58.530Z,99850.29
2023-02-14T09:52:28.066Z,99861.46
2023-02-14T09:54:59.192Z,99851.39
2023-02-14T09:57:45.676Z,99856.40
2023-02-14T10:00:14.688Z,99854.61
2023-02-14T10:02:44.508Z,99855.33
2023-02-14T10:05:34.330Z,99854.42
2023-02-14T10:08:09.741Z,99851.66
2023-02-14T10:10:44.203Z,99845.67
2023-02-14T10:13:18.539Z,99837.45
2023-02-14T10:15:56.800Z,99839.61
2023-02-14T10:18:29.311Z,99848.42
2023-02-14T10:20:59.009Z,99845.74
2023-02-14T10:23:38.661Z,99850.98
2023-02-14T10:26:15.031Z,99833.70
2023-02-14T10:28:49.416Z,99825.80
2023-02-14T10:31:17.739Z,99825.54
2023-02-14T10:34:06.774Z,99830.35
2023-02-14T10:37:01.836Z,99826.73
2023-02-14T10:39:42.048Z,99825.34
2023-02-14T10:42:51.818Z,99827.84
2023-02-14T10:45:24.285Z,99830.00
2023-02-14T10:47:55.625Z,99828.10
2023-02-14T10:50:56.263Z,99820.58
2023-02-14T10:53:40.318Z,99810.70
2023-02-14T10:56:20.181Z,99822.14
2023-02-14T10:58:49.190Z,99817.35
2023-02-14T11:01:18.202Z,99816.60
2023-02-14T11:03:56.290Z,99817.05
2023-02-14T11:06:24.611Z,99813.58
2023-02-14T11:08:52.652Z,99815.56
2023-02-14T11:11:30.620Z,99811.56
2023-02-14T11:13:58.931Z,99815.89
2023-02-14T11:16:36.139Z,99808.92
2023-02-14T11:19:19.940Z,99811.02
2023-02-14T11:21:49.751Z,99803.62
2023-02-14T11:24:39.422Z,99812.60
2023-02-14T11:27:18.051Z,99809.16
2023-02-14T11:29:49.217Z,99795.09
2023-02-14T11:32:28.609Z,99814.20
2023-02-14T11:34:59.774Z,99805.30
2023-02-14T11:37:34.063Z,99808.63
2023-02-14T11:40:02.340Z,99803.40
2023-02-14T11:42:43.072Z,99800.94
2023-02-14T11:45:31.380Z,99804.52
2023-02-14T11:48:10.405Z,99808.20
2023-02-14T11:50:38.522Z,99816.15
2023-02-14T11:53:06.572Z,99802.82
2023-02-14T11:55:35.183Z,99807.50
2023-02-14T11:58:05.558Z,99807.67
2023-02-14T12:00:38.077Z,99809.08
2023-02-14T12:03:06.291Z,99805.20
2023-02-14T12:05:45.182Z,99811.27
2023-02-14T12:08:13.234Z,99814.34
2023-02-14T12:10:44.512Z,99807.85
2023-02-14T12:13:12.662Z,99808.02
2023-02-14T12:15:43.894Z,99808.25
2023-02-14T12:18:18.227Z,99798.89
2023-02-14T12:21:16.292Z,99803.92
2023-02-14T12:24:02.826Z,99801.70
2023-02-14T12:27:04.796Z,99805.41
2023-02-14T12:29:47.878Z,99816.56
2023-02-14T12:32:25.665Z,99814.56
2023-02-14T12:35:00.938Z,99809.27
2023-02-14T12:37:50.774Z,99813.59
2023-02-14T12:40:50.119Z,99825.73
2023-02-14T12:43:30.926Z,99828.28
2023-02-14T12:46:04.083Z,99820.23
2023-02-14T12:48:38.937Z,99828.93
2023-02-14T12:51:34.717Z,99827.02
2023-02-14T12:54:21.096Z,99825.73
2023-02-14T12:57:08.808Z,99827.92
2023-02-14T12:59:57.241Z,99814.64
2023-02-14T13:02:40.394Z,99826.27
2023-02-14T13:05:16.667Z,99829.20
2023-02-14T13:08:09.582Z,99828.66
2023-02-14T13:11:06.814Z,99838.92
2023-02-14T13:13:47.155Z,99848.73
2023-02-14T13:16:31.559Z,99849.02
2023-02-14T13:19:03.105Z,99846.95
2023-02-14T13:21:34.757Z,99841.58
2023-02-14T13:24:23.755Z,99853.10
2023-02-14T13:26:59.212Z,99860.92
2023-02-14T13:29:37.125Z,99858.67
2023-02-14T13:32:05.734Z,99862.67
2023-02-14T13:34:46.856Z,99863.41
2023-02-14T13:37:20.179Z,99866.84
2023-02-14T13:40:09.222Z,99868.64
2023-02-14T13:42:52.875Z,99875.14
2023-02-14T13:45:30.675Z,99884.29
2023-02-14T13:48:18.630Z,99881.73
2023-02-14T13:50:54.818Z,99890.48
2023-02-14T13:53:34.736Z,99883.44
2023-02-14T13:56:05.365Z,99884.83
2023-02-14T13:58:35.336Z,99887.61
2023-02-14T14:01:50.720Z,99886.59
2023-02-14T14:04:28.491Z,99889.61
2023-02-14T14:07:02.918Z,99893.89
2023-02-14T14:09:42.903Z,99907.77
2023-02-14T14:12:26.776Z,99904.11
2023-02-14T14:15:05.396Z,99904.06
2023-02-14T14:17:34.696Z,99911.58
2023-02-14T14:20:23.252Z,99910.23
2023-02-14T14:22:59.115Z,99916.36
2023-02-14T14:25:34.272Z,99924.70
2023-02-14T14:28:02.797Z,99926.67
2023-02-14T14:30:33.123Z,99935.04
2023-02-14T14:33:17.504Z,99935.31
2023-02-14T14:36:07.776Z,99950.55
2023-02-14T14:38:46.920Z,99957.69
2023-02-14T14:41:15.053Z,99955.13
2023-02-14T14:43:46.454Z,99964.38
2023-02-14T14:46:16.490Z,99958.41
2023-02-14T14:48:47.211Z,99966.89
2023-02-14T14:51:34.177Z,99971.52
2023-02-14T14:54:14.886Z,99967.13
2023-02-14T14:56:50.315Z,99966.79
2023-02-14T14:59:40.445Z,99974.33
2023-02-14T15:02:24.391Z,99975.55
2023-02-14T15:04:52.602Z,99981.20
2023-02-14T15:07:27.687Z,99987.42
2023-02-14T15:09:56.017Z,99982.84
2023-02-14T15:12:43.378Z,99990.24
2023-02-14T15:15:12.639Z,99991.41
2023-02-14T15:17:43.249Z,99993.84
2023-02-14T15:20:19.396Z,99996.96
2023-02-14T15:22:48.758Z,99995.65
2023-02-14T15:25:21.831Z,100000.60
2023-02-14T15:27:50.093Z,100004.24
2023-02-14T15:30:38.187Z,100002.85
2023-02-14T15:33:06.852Z,100011.54
2023-02-14T15:35:38.175Z,100019.46
2023-02-14T15:38:06.253Z,100023.20
2023-02-14T15:40:34.811Z,100026.89
2023-02-14T15:43:14.955Z,100032.12
2023-02-14T15:45:43.034Z,100040.02
2023-02-14T15:48:19.671Z,100051.25
2023-02-14T15:50:52.889Z,100049.27
2023-02-14T15:53:35.820Z,100059.62
2023-02-14T15:56:28.900Z,100064.89
2023-02-14T15:59:05.370Z,100061.30
2023-02-14T16:01:39.546Z,100068.98
2023-02-14T16:04:08.800Z,100078.11
2023-02-14T16:06:44.522Z,100078.73
2023-02-14T16:09:27.083Z,100082.83
2023-02-14T16:11:58.099Z,100090.14
2023-02-14T16:14:35.340Z,100091.29
2023-02-14T16:17:15.227Z,100090.41
2023-02-14T16:19:48.329Z,100091.38
2023-02-14T16:22:32.288Z,100096.30
2023-02-14T16:25:00.976Z,100105.52
2023-02-14T16:27:29.421Z,100104.50
2023-02-14T16:29:58.868Z,100104.99
2023-02-14T16:32:27.012Z,100114.41
2023-02-14T16:34:55.406Z,100118.38
2023-02-14T16:37:31.659Z,100117.74
2023-02-14T16:40:00.244Z,100122.08
2023-02-14T16:42:28.809Z,100127.45
2023-02-14T16:44:56.852Z,100126.77
2023-02-14T16:47:27.876Z,100133.90
2023-02-14T16:49:56.341Z,100132.97
2023-02-14T16:52:26.429Z,100134.86
2023-02-14T16:54:57.732Z,100138.10
2023-02-14T16:57:28.270Z,100142.76
2023-02-14T16:59:57.389Z,100148.08
2023-02-14T17:02:30.604Z,100156.40
2023-02-14T17:04:58.969Z,100162.61
2023-02-14T17:07:30.393Z,100170.36
2023-02-14T17:10:05.339Z,100171.83
2023-02-14T17:12:37.928Z,100177.08
2023-02-14T17:15:16.591Z,100181.60
2023-02-14T17:17:46.036Z,100179.18
2023-02-14T17:20:14.529Z,100178.52
2023-02-14T17:22:44.731Z,100186.11
2023-02-14T17:25:12.747Z,100182.00
2023-02-14T17:27:44.120Z,100187.98
2023-02-14T17:30:13.435Z,100192.58
2023-02-14T17:32:42.780Z,100198.13
2023-02-14T17:35:12.086Z,100197.73
2023-02-14T17:37:40.328Z,100199.94
2023-02-14T17:40:09.086Z,100201.21
2023-02-14T17:42:38.891Z,100205.41
2023-02-14T17:45:07.389Z,100211.81
2023-02-14T17:47:36.192Z,100215.52
2023-02-14T17:50:04.480Z,100217.77
2023-02-14T17:52:33.180Z,100224.36
2023-02-14T17:55:01.264Z,100229.41
2023-02-14T17:57:32.762Z,100231.64
2023-02-14T18:00:05.843Z,100232.73
2023-02-14T18:02:41.485Z,100235.89
2023-02-14T18:05:09.583Z,100233.75
2023-02-14T18:07:38.763Z,100235.36
2023-02-14T18:10:07.302Z,100242.64
2023-02-14T18:12:35.544Z,100241.13
2023-02-14T18:15:03.969Z,100242.03
2023-02-14T18:17:32.577Z,100243.05
2023-02-14T18:20:00.958Z,100241.46
2023-02-14T18:22:29.404Z,100248.98
2023-02-14T18:24:58.876Z,100247.96
2023-02-14T18:27:27.565Z,100246.83
2023-02-14T18:29:57.069Z,100246.69
2023-02-14T18:32:25.302Z,100247.05
2023-02-14T18:34:55.201Z,100248.73
2023-02-14T18:37:23.378Z,100251.30
2023-02-14T18:39:51.543Z,100249.27
2023-02-14T18:42:22.443Z,100253.94
2023-02-14T18:44:51.912Z,100255.81
2023-02-14T18:47:20.250Z,100262.52
2023-02-14T18:49:53.241Z,100262.95
2023-02-14T18:52:21.374Z,100262.73
2023-02-14T18:54:49.359Z,100262.91
2023-02-14T18:57:20.845Z,100263.27
2023-02-14T18:59:49.504Z,100263.31
2023-02-14T19:02:18.094Z,100269.05
2023-02-14T19:04:46.333Z,100263.08
2023-02-14T19:07:14.470Z,100267.26
2023-02-14T19:09:43.333Z,100266.52
2023-02-14T19:12:11.697Z,100263.52
2023-02-14T19:14:40.754Z,100268.33
2023-02-14T19:17:08.880Z,100271.19
2023-02-14T19:19:37.886Z,100273.75
2023-02-14T19:22:06.386Z,100277.33
2023-02-14T19:24:37.288Z,100278.77
2023-02-14T19:27:05.668Z,100279.12
2023-02-14T19:29:34.581Z,100282.08
2023-02-14T19:32:03.118Z,100283.00
2023-02-14T19:34:31.580Z,100283.71
2023-02-14T19:37:00.756Z,100291.08
2023-02-14T19:39:32.183Z,100291.80
2023-02-14T19:42:00.991Z,100291.27
2023-02-14T19:44:31.267Z,100296.02
2023-02-14T19:47:02.756Z,100297.50
2023-02-14T19:49:32.403Z,100298.80
2023-02-14T19:52:00.969Z,100297.30
2023-02-14T19:54:30.170Z,100297.11
2023-02-14T19:56:58.466Z,100292.17
2023-02-14T19:59:28.032Z,100294.02
2023-02-14T20:01:56.981Z,100294.79
2023-02-14T20:04:26.778Z,100295.78
2023-02-14T20:06:54.973Z,100298.02
2023-02-14T20:09:23.214Z,100294.30
2023-02-14T20:11:54.621Z,100297.09
2023-02-14T20:14:36.022Z,100298.19
2023-02-14T20:17:09.013Z,100295.21
2023-02-14T20:19:38.158Z,100292.21
2023-02-14T20:22:08.329Z,100300.83
2023-02-14T20:24:38.866Z,100300.67
2023-02-14T20:27:08.224Z,100303.48
2023-02-14T20:29:38.975Z,100308.06
2023-02-14T20:32:07.504Z,100313.50
2023-02-14T20:34:36.096Z,100311.82
2023-02-14T20:37:04.334Z,100313.50
2023-02-14T20:39:33.927Z,100314.96
2023-02-14T20:42:01.975Z,100321.73
2023-02-14T20:44:30.631Z,100320.39
2023-02-14T20:46:58.682Z,100322.23
2023-02-14T20:49:27.967Z,100323.80
2023-02-14T20:51:56.218Z,100319.35
2023-02-14T20:54:26.200Z,100324.95
2023-02-14T20:56:54.672Z,100327.02
2023-02-14T20:59:27.062Z,100324.09
2023-02-14T21:01:55.932Z,100327.71
2023-02-14T21:04:24.134Z,100338.15
2023-02-14T21:06:52.203Z,100340.13
2023-02-14T21:09:21.177Z,100341.42
2023-02-14T21:11:50.424Z,100342.42
2023-02-14T21:14:18.462Z,100342.80
2023-02-14T21:16:48.008Z,100342.94
2023-02-14T21:19:17.731Z,100348.63
2023-02-14T21:21:46.018Z,100346.73
2023-02-14T21:24:15.455Z,100351.48
2023-02-14T21:26:44.903Z,100351.09
2023-02-14T21:29:13.573Z,100347.63
2023-02-14T21:31:42.622Z,100346.92
2023-02-14T21:34:11.265Z,100354.36
2023-02-14T21:36:39.499Z,100356.20
2023-02-14T21:39:08.110Z,100358.80
2023-02-14T21:41:36.468Z,100354.08
2023-02-14T21:44:08.009Z,100357.69
2023-02-14T21:46:38.853Z,100363.14
2023-02-14T21:49:26.341Z,100358.96
2023-02-14T21:51:54.803Z,100363.26
2023-02-14T21:54:25.765Z,100366.58
2023-02-14T21:56:53.965Z,100367.37
2023-02-14T21:59:24.413Z,100364.46
2023-02-14T22:01:52.617Z,100366.44
2023-02-14T22:04:20.759Z,100368.08
2023-02-14T22:06:48.924Z,100367.58
2023-02-14T22:09:19.030Z,100368.67
2023-02-14T22:11:49.977Z,100368.85
2023-02-14T22:14:18.120Z,100366.40
2023-02-14T22:16:46.159Z,100369.81
2023-02-14T22:19:15.629Z,100367.39
2023-02-14T22:21:43.894Z,100367.19
2023-02-14T22:24:12.866Z,100368.14
2023-02-14T22:26:41.428Z,100367.99
2023-02-14T22:29:13.688Z,100366.54
2023-02-14T22:31:42.892Z,100367.80
2023-02-14T22:34:12.991Z,100366.50
2023-02-14T22:36:41.872Z,100362.55
2023-02-14T22:39:12.983Z,100369.40
2023-02-14T22:41:46.741Z,100374.27
2023-02-14T22:44:14.779Z,100370.27
2023-02-14T22:46:44.408Z,100371.98
2023-02-14T22:49:14.770Z,100370.38
2023-02-14T22:51:43.021Z,100373.30
2023-02-14T22:54:13.684Z,100369.15
2023-02-14T22:56:43.611Z,100366.73
2023-02-14T22:59:17.953Z,100369.73
2023-02-14T23:01:49.086Z,100367.30
2023-02-14T23:04:19.392Z,100377.34
2023-02-14T23:06:48.257Z,100373.92
2023-02-14T23:09:16.803Z,100378.26
2023-02-14T23:11:45.731Z,100374.31
2023-02-14T23:14:33.287Z,100371.26
2023-02-14T23:17:20.201Z,100373.43
2023-02-14T23:20:07.124Z,100373.86
2023-02-14T23:22:40.065Z,100377.54
2023-02-14T23:25:10.242Z,100380.50
2023-02-14T23:27:44.080Z,100382.54
2023-02-14T23:30:16.065Z,100384.74
2023-02-14T23:32:44.573Z,100387.23
2023-02-14T23:35:12.672Z,100386.48
2023-02-14T23:37:41.918Z,100391.37
2023-02-14T23:40:11.957Z,100395.08
2023-02-14T23:42:41.429Z,100393.71
2023-02-14T23:45:28.775Z,100399.72
2023-02-14T23:48:04.230Z,100407.31
2023-02-14T23:50:32.592Z,100406.61
2023-02-14T23:53:01.025Z,100411.98
2023-02-14T23:55:30.827Z,100408.81
2023-02-14T23:57:59.258Z,100408.55
